createdAt,value
2019-03-30T14:46:38.588Z,55.10
2019-03-30T14:51:53.330Z,56.00
2019-03-30T14:57:13.772Z,57.10
2019-03-30T15:02:42.362Z,57.80
2019-03-30T15:08:25.267Z,58.10
2019-03-30T15:13:31.721Z,57.30
2019-03-30T15:18:36.864Z,57.40
2019-03-30T15:23:42.550Z,58.00
2019-03-30T15:28:56.120Z,57.90
2019-03-30T15:34:22.768Z,57.60
2019-03-30T15:39:40.313Z,58.00
2019-03-30T15:45:08.439Z,57.00
2019-03-30T15:50:15.459Z,56.40
2019-03-30T15:55:20.380Z,56.70
2019-03-30T16:00:47.012Z,56.40
2019-03-30T16:05:52.023Z,56.40
2019-03-30T16:11:00.944Z,56.10
2019-03-30T16:16:06.374Z,56.50
2019-03-30T16:21:12.064Z,56.60
2019-03-30T16:26:17.107Z,57.50
2019-03-30T16:31:22.172Z,57.90
2019-03-30T16:36:26.996Z,57.80
2019-03-30T16:41:31.833Z,58.10
2019-03-30T16:46:37.132Z,58.20
2019-03-30T16:51:42.305Z,58.40
2019-03-30T16:56:47.273Z,58.30
2019-03-30T17:01:53.495Z,59.20
2019-03-30T17:07:07.991Z,58.90
2019-03-30T17:12:13.595Z,59.10
2019-03-30T17:17:20.462Z,59.90
2019-03-30T17:22:27.927Z,59.90
2019-03-30T17:27:33.930Z,59.80
2019-03-30T17:32:53.761Z,60.80
2019-03-30T17:38:08.331Z,61.20
2019-03-30T17:43:17.536Z,63.70
2019-03-30T17:48:23.097Z,64.90
2019-03-30T17:53:28.968Z,65.80
2019-03-30T17:58:39.314Z,66.70
2019-03-30T18:03:50.175Z,67.00
2019-03-30T18:09:02.928Z,67.20
2019-03-30T18:14:51.920Z,67.40
2019-03-30T18:20:14.979Z,68.60
2019-03-30T18:25:36.166Z,71.00
2019-03-30T18:31:29.243Z,71.90
2019-03-30T18:55:29.869Z,79.80
2019-03-30T19:01:08.172Z,81.10
2019-03-30T19:06:55.732Z,82.90
2019-03-30T19:12:25.173Z,83.20
